createdAt,value
2023-02-02T00:00:56.107Z,8.60
2023-02-02T00:09:29.246Z,9.50
2023-02-02T00:12:08.255Z,10.07
2023-02-02T00:14:45.953Z,17.00
2023-02-02T00:17:37.391Z,9.20
2023-02-02T00:20:27.835Z,11.50
2023-02-02T00:23:12.402Z,8.27
2023-02-02T00:25:56.208Z,10.05
2023-02-02T00:28:31.437Z,10.93
2023-02-02T00:31:30.183Z,12.35
2023-02-02T00:34:12.035Z,16.98
2023-02-02T00:36:51.651Z,14.05
2023-02-02T00:39:48.963Z,12.63
2023-02-02T00:42:26.795Z,13.85
2023-02-02T00:45:20.714Z,12.98
2023-02-02T00:48:15.105Z,14.48
2023-02-02T00:51:18.417Z,12.95
2023-02-02T00:53:55.768Z,13.15
2023-02-02T00:56:35.344Z,10.27
2023-02-02T00:59:11.869Z,9.15
2023-02-02T01:01:50.104Z,8.77
2023-02-02T01:04:41.388Z,11.57
2023-02-02T01:07:45.129Z,16.15
2023-02-02T01:10:23.774Z,7.72
2023-02-02T01:13:05.396Z,9.05
2023-02-02T01:15:46.298Z,10.27
2023-02-02T01:18:37.317Z,13.95
2023-02-02T01:21:14.730Z,9.45
2023-02-02T01:24:16.994Z,6.25
2023-02-02T01:27:32.749Z,9.57
2023-02-02T01:30:15.545Z,7.30
2023-02-02T01:32:55.077Z,10.57
2023-02-02T01:35:36.864Z,8.80
2023-02-02T01:38:29.253Z,11.82
2023-02-02T01:41:12.659Z,12.85
2023-02-02T01:44:31.546Z,14.40
2023-02-02T01:47:25.932Z,11.48
2023-02-02T01:50:05.455Z,12.43
2023-02-02T01:52:55.430Z,14.43
2023-02-02T01:55:37.184Z,11.70
2023-02-02T01:58:19.292Z,9.27
2023-02-02T02:00:54.546Z,10.10
2023-02-02T02:03:29.426Z,7.72
2023-02-02T02:11:54.078Z,7.07
2023-02-02T02:14:58.920Z,11.63
2023-02-02T02:17:46.453Z,11.80
2023-02-02T02:21:05.092Z,13.73
2023-02-02T02:24:55.986Z,6.25
2023-02-02T02:28:16.469Z,10.10
2023-02-02T02:31:29.030Z,7.43
2023-02-02T02:34:13.590Z,13.65
2023-02-02T02:36:58.053Z,12.75
2023-02-02T02:39:37.055Z,5.07
2023-02-02T02:42:29.703Z,8.50
2023-02-02T02:45:20.699Z,10.35
2023-02-02T02:48:02.715Z,6.03
2023-02-02T02:50:44.721Z,8.57
2023-02-02T02:53:29.518Z,8.77
2023-02-02T02:56:17.487Z,8.90
2023-02-02T02:59:13.063Z,6.23
2023-02-02T03:05:49.064Z,16.25
2023-02-02T03:08:40.549Z,11.00
2023-02-02T03:18:02.389Z,12.65
2023-02-02T03:27:07.915Z,12.10
2023-02-02T03:32:58.478Z,5.90
2023-02-02T03:38:52.874Z,9.23
2023-02-02T03:41:30.263Z,9.00
2023-02-02T03:47:17.361Z,9.90
2023-02-02T03:57:02.555Z,12.25
2023-02-02T04:00:27.147Z,11.00
2023-02-02T04:03:20.067Z,13.70
2023-02-02T04:11:50.052Z,10.00
2023-02-02T04:14:47.582Z,13.60
2023-02-02T04:17:26.203Z,9.85
2023-02-02T04:20:47.448Z,9.20
2023-02-02T04:23:29.706Z,11.97
2023-02-02T04:33:22.126Z,12.93
2023-02-02T04:36:22.392Z,7.85
2023-02-02T04:39:07.238Z,6.47
2023-02-02T04:45:11.269Z,14.55
2023-02-02T04:47:47.835Z,14.90
2023-02-02T04:53:31.458Z,10.80
2023-02-02T04:56:19.544Z,12.55
2023-02-02T04:59:22.036Z,9.77
2023-02-02T05:02:11.331Z,5.40
2023-02-02T05:04:50.031Z,6.40
2023-02-02T05:16:43.163Z,7.85
2023-02-02T05:19:17.658Z,7.35
2023-02-02T05:22:31.854Z,7.00
2023-02-02T05:25:20.225Z,6.55
2023-02-02T05:28:00.551Z,13.95
2023-02-02T05:31:06.498Z,8.52
2023-02-02T05:33:48.632Z,8.95
2023-02-02T05:36:30.735Z,8.00
2023-02-02T05:39:10.222Z,7.32
2023-02-02T05:48:13.266Z,10.85
2023-02-02T05:51:20.160Z,8.98
2023-02-02T05:53:56.570Z,6.85
2023-02-02T05:56:37.916Z,8.87
2023-02-02T06:05:04.935Z,11.20
2023-02-02T06:07:45.244Z,11.07
2023-02-02T06:13:24.669Z,7.03
2023-02-02T06:15:59.803Z,11.55
2023-02-02T06:18:34.455Z,8.48
2023-02-02T06:21:13.411Z,10.02
2023-02-02T06:23:54.081Z,14.77
2023-02-02T06:29:35.189Z,13.57
2023-02-02T06:35:55.901Z,8.48
2023-02-02T06:39:02.544Z,9.97
2023-02-02T06:42:20.401Z,11.95
2023-02-02T06:45:02.777Z,9.85
2023-02-02T06:50:40.088Z,6.75
2023-02-02T06:53:33.198Z,8.43
2023-02-02T06:56:24.534Z,6.50
2023-02-02T06:59:09.646Z,11.55
2023-02-02T07:05:39.329Z,5.05
2023-02-02T07:08:31.819Z,5.43
2023-02-02T07:14:02.357Z,10.25
2023-02-02T07:19:55.396Z,6.47
2023-02-02T07:22:34.303Z,5.75
2023-02-02T07:25:36.641Z,8.68
2023-02-02T07:28:28.166Z,4.57
2023-02-02T07:31:12.203Z,6.05
2023-02-02T07:34:12.743Z,7.57
2023-02-02T07:37:16.842Z,10.90
2023-02-02T07:48:46.269Z,7.75
2023-02-02T07:52:00.184Z,5.60
2023-02-02T07:55:18.704Z,6.10
2023-02-02T07:58:06.497Z,6.25
2023-02-02T08:00:48.204Z,6.60
2023-02-02T08:30:25.882Z,3.30
2023-02-02T08:33:36.768Z,4.90
2023-02-02T08:36:21.960Z,6.15
2023-02-02T08:42:18.134Z,7.63
2023-02-02T08:54:41.907Z,5.00
2023-02-02T10:16:50.307Z,3.72
2023-02-02T10:19:36.648Z,6.35
2023-02-02T10:22:11.719Z,4.20
2023-02-02T10:25:10.048Z,5.30
2023-02-02T10:27:51.423Z,4.85
2023-02-02T10:30:31.429Z,4.20
2023-02-02T10:33:11.066Z,9.37
2023-02-02T10:35:53.710Z,3.70
2023-02-02T10:38:38.105Z,2.72
2023-02-02T10:41:21.618Z,3.15
2023-02-02T10:44:10.378Z,4.07
2023-02-02T10:46:46.786Z,5.38
2023-02-02T10:49:26.579Z,4.13
2023-02-02T10:52:17.436Z,7.70
2023-02-02T10:55:25.832Z,4.53
2023-02-02T10:58:08.475Z,8.50
2023-02-02T11:00:48.819Z,5.80
2023-02-02T11:03:26.793Z,5.22
2023-02-02T11:06:26.325Z,4.75
2023-02-02T11:09:05.604Z,6.50
2023-02-02T11:11:48.604Z,5.55
2023-02-02T11:14:44.804Z,7.10
2023-02-02T11:20:10.412Z,4.40
2023-02-02T11:22:47.254Z,6.32
2023-02-02T11:25:51.770Z,5.88
2023-02-02T11:28:39.879Z,6.27
2023-02-02T11:31:33.824Z,4.60
2023-02-02T11:34:25.264Z,3.05
2023-02-02T11:37:19.285Z,3.75
2023-02-02T11:46:28.079Z,4.72
2023-02-02T11:52:55.554Z,2.60
2023-02-02T11:55:38.224Z,5.78
2023-02-02T11:58:33.126Z,6.60
2023-02-02T12:01:30.814Z,3.80
2023-02-02T12:04:32.609Z,5.18
2023-02-02T12:13:31.004Z,5.13
2023-02-02T12:20:06.397Z,6.93
2023-02-02T12:23:06.982Z,3.55
2023-02-02T12:31:47.370Z,4.32
2023-02-02T12:34:33.722Z,6.53
2023-02-02T12:37:22.307Z,5.25
2023-02-02T12:40:03.834Z,5.85
2023-02-02T12:42:59.007Z,4.00
2023-02-02T12:49:37.677Z,3.00
2023-02-02T12:52:12.705Z,7.70
2023-02-02T12:58:42.659Z,7.75
2023-02-02T13:02:01.073Z,9.67
2023-02-02T13:30:34.439Z,11.80
2023-02-02T13:37:27.912Z,7.13
2023-02-02T13:53:02.381Z,5.20
2023-02-02T13:56:22.381Z,2.67
2023-02-02T13:59:07.617Z,6.25
2023-02-02T14:04:58.281Z,8.98
2023-02-02T14:07:56.999Z,10.10
2023-02-02T14:17:02.867Z,12.40
2023-02-02T14:20:04.780Z,17.10
2023-02-02T14:48:35.791Z,6.25
2023-02-02T15:13:02.078Z,7.45
2023-02-02T16:20:49.789Z,7.03
2023-02-02T16:23:49.467Z,4.00
2023-02-02T18:04:47.881Z,2.58
2023-02-02T18:29:35.227Z,5.03
2023-02-02T18:35:21.637Z,4.68
2023-02-02T18:37:58.585Z,4.88
2023-02-02T18:40:36.943Z,3.37
2023-02-02T18:46:59.071Z,6.20
2023-02-02T19:40:34.554Z,3.15
2023-02-02T19:52:23.512Z,4.40
2023-02-02T20:12:20.727Z,6.43
2023-02-02T20:15:07.980Z,4.15
2023-02-02T20:21:01.008Z,2.90
2023-02-02T20:27:51.016Z,4.97
2023-02-02T21:34:52.345Z,9.40
2023-02-02T21:37:29.507Z,8.93
2023-02-02T21:40:12.322Z,8.70
2023-02-02T21:42:52.654Z,7.53
2023-02-02T21:48:28.574Z,6.43
2023-02-02T21:51:22.525Z,6.87
2023-02-02T21:54:02.372Z,7.05
2023-02-02T21:56:41.760Z,6.38
2023-02-02T21:59:24.286Z,7.90
2023-02-02T22:02:04.492Z,6.93
2023-02-02T22:04:45.120Z,6.25
2023-02-02T22:07:27.415Z,8.10
2023-02-02T22:10:08.696Z,7.05
2023-02-02T22:12:54.786Z,6.03
2023-02-02T22:15:33.818Z,7.13
2023-02-02T22:18:15.888Z,8.48
2023-02-02T22:20:52.684Z,11.25
2023-02-02T22:23:58.484Z,12.18
2023-02-02T22:26:44.270Z,10.30
2023-02-02T22:29:24.974Z,9.30
2023-02-02T22:32:01.985Z,13.45
2023-02-02T22:34:41.993Z,12.07
2023-02-02T22:37:19.656Z,11.60
2023-02-02T22:40:00.952Z,10.90
2023-02-02T22:42:43.153Z,9.40
2023-02-02T22:45:29.239Z,11.15
2023-02-02T22:48:03.614Z,11.23
2023-02-02T22:50:41.324Z,12.05
2023-02-02T22:53:18.135Z,14.48
2023-02-02T22:58:39.117Z,14.55
2023-02-02T23:01:24.247Z,12.05
2023-02-02T23:04:00.725Z,15.50
2023-02-02T23:06:36.935Z,15.30
2023-02-02T23:11:51.240Z,11.37
2023-02-02T23:14:33.879Z,9.60
2023-02-02T23:17:11.926Z,10.85
2023-02-02T23:19:47.447Z,14.13
2023-02-02T23:22:26.215Z,10.35
2023-02-02T23:25:05.400Z,11.95
2023-02-02T23:27:46.771Z,13.27
2023-02-02T23:30:29.123Z,9.90
2023-02-02T23:33:07.273Z,11.75
2023-02-02T23:35:43.474Z,12.68
2023-02-02T23:38:19.383Z,9.05
2023-02-02T23:40:56.409Z,10.80
2023-02-02T23:43:31.777Z,10.00
2023-02-02T23:46:18.123Z,8.73
2023-02-02T23:48:54.476Z,10.38
2023-02-02T23:51:30.678Z,11.50
2023-02-02T23:56:58.988Z,8.70
2023-02-02T23:59:36.849Z,8.95
